Time;durP1;ratioP1;P1;durP2;ratioP2;P2;SDS_P1;SDS_P2;PMS_P1;PMS_P2;Temp;Humidity;BMP_temperature;BMP_pressure;BME280_temperature;BME280_humidity;BME280_pressure;Samples;Min_cycle;Max_cycle;Signal;HPM_P1;HPM_P2
2023/05/25 00:00:04;;;;;;;;;;;19.30;57.90;;;;;;21085372;28;19928;-58
2023/05/25 00:10:06;;;;;;;;;;;19.30;58.10;;;;;;21085784;28;19969;-57
2023/05/25 00:20:07;;;;;;;;;;;19.20;58.70;;;;;;21084464;28;19978;-57
2023/05/25 00:30:08;;;;;;;;;;;19.10;59.30;;;;;;21084213;28;19969;-57
2023/05/25 00:40:11;;;;;;;;;;;19.00;59.60;;;;;;21082382;28;19971;-57
2023/05/25 00:50:13;;;;;;;;;;;18.90;59.70;;;;;;21080873;28;19924;-57
2023/05/25 01:00:14;;;;;;;;;;;18.70;60.40;;;;;;21080630;28;19931;-56
2023/05/25 01:10:15;;;;;;;;;;;18.50;61.40;;;;;;21081171;28;20357;-57
2023/05/25 01:20:16;;;;;;;;;;;18.20;62.60;;;;;;21079764;28;19947;-57
2023/05/25 01:30:18;;;;;;;;;;;18.20;62.90;;;;;;21079994;28;19924;-57
2023/05/25 01:40:20;;;;;;;;;;;18.20;62.90;;;;;;21078189;28;20467;-55
2023/05/25 01:50:22;;;;;;;;;;;18.20;63.40;;;;;;21077096;28;19932;-57
2023/05/25 02:00:30;;;;;;;;;;;18.10;63.90;;;;;;21081072;28;19924;-59
2023/05/25 02:10:30;;;;;;;;;;;18.00;64.20;;;;;;21092247;28;19928;-58
2023/05/25 02:20:31;;;;;;;;;;;17.70;64.40;;;;;;21091557;28;19928;-57
2023/05/25 02:30:32;;;;;;;;;;;17.70;64.80;;;;;;21091991;28;19924;-57
2023/05/25 02:40:32;;;;;;;;;;;17.60;65.30;;;;;;21091326;28;19924;-58
2023/05/25 02:50:33;;;;;;;;;;;17.60;65.30;;;;;;21090817;28;19924;-57
2023/05/25 03:00:33;;;;;;;;;;;17.50;65.70;;;;;;21088346;28;19954;-57
2023/05/25 03:10:34;;;;;;;;;;;17.70;65.50;;;;;;21087063;28;19924;-57
2023/05/25 03:20:35;;;;;;;;;;;17.50;65.90;;;;;;21087495;28;20288;-56
2023/05/25 03:30:36;;;;;;;;;;;17.50;66.40;;;;;;21086032;28;19924;-57
2023/05/25 03:40:36;;;;;;;;;;;17.40;66.80;;;;;;21084725;28;19924;-56
2023/05/25 03:50:39;;;;;;;;;;;17.30;67.10;;;;;;21084078;28;19953;-57
2023/05/25 04:00:41;;;;;;;;;;;17.50;66.40;;;;;;21083424;28;20321;-58
2023/05/25 04:10:41;;;;;;;;;;;17.60;66.00;;;;;;21083801;28;20415;-57
2023/05/25 04:20:42;;;;;;;;;;;17.60;65.20;;;;;;21082811;28;19924;-56
2023/05/25 04:30:43;;;;;;;;;;;17.60;65.10;;;;;;21081349;28;20372;-56
2023/05/25 04:40:46;;;;;;;;;;;17.70;64.20;;;;;;21082348;28;19963;-57
2023/05/25 04:50:46;;;;;;;;;;;17.60;64.30;;;;;;21082342;28;20395;-57
2023/05/25 05:00:47;;;;;;;;;;;17.60;64.30;;;;;;21081393;28;19928;-58
2023/05/25 05:10:48;;;;;;;;;;;17.50;64.30;;;;;;21080595;28;20368;-57
2023/05/25 05:20:48;;;;;;;;;;;17.50;64.50;;;;;;21080000;28;19977;-57
2023/05/25 05:30:49;;;;;;;;;;;17.50;64.70;;;;;;21078279;28;19975;-58
2023/05/25 05:40:50;;;;;;;;;;;17.50;65.00;;;;;;21092366;28;19939;-57
2023/05/25 05:50:51;;;;;;;;;;;17.60;64.60;;;;;;21096361;28;19935;-56
2023/05/25 06:00:52;;;;;;;;;;;17.60;64.70;;;;;;21095422;28;19970;-57
2023/05/25 06:10:54;;;;;;;;;;;17.70;64.10;;;;;;21093359;28;19928;-57
2023/05/25 06:20:55;;;;;;;;;;;17.70;64.00;;;;;;21092016;28;20015;-58
2023/05/25 06:30:55;;;;;;;;;;;17.80;63.40;;;;;;21092753;28;20425;-57
2023/05/25 06:41:01;;;;;;;;;;;18.00;62.50;;;;;;21092202;28;19924;-56
2023/05/25 06:51:02;;;;;;;;;;;18.00;62.30;;;;;;21091950;28;20349;-58
2023/05/25 07:01:03;;;;;;;;;;;18.40;61.40;;;;;;21088140;28;19924;-57
2023/05/25 07:11:03;;;;;;;;;;;19.00;59.20;;;;;;21088664;28;19930;-57
2023/05/25 07:21:04;;;;;;;;;;;19.40;57.90;;;;;;21088479;28;19924;-57
2023/05/25 07:31:05;;;;;;;;;;;19.80;56.60;;;;;;21088818;28;19931;-59
2023/05/25 07:41:05;;;;;;;;;;;20.10;55.20;;;;;;21087959;28;19924;-59
2023/05/25 07:51:06;;;;;;;;;;;20.30;54.20;;;;;;21086972;28;19924;-57
2023/05/25 08:01:07;;;;;;;;;;;20.50;53.20;;;;;;21085847;28;19990;-58
2023/05/25 08:11:08;;;;;;;;;;;20.80;52.50;;;;;;21085930;28;19924;-57
2023/05/25 08:21:09;;;;;;;;;;;21.20;50.90;;;;;;21084040;28;19968;-57
2023/05/25 08:31:10;;;;;;;;;;;21.30;50.40;;;;;;21083805;28;19927;-56
2023/05/25 08:41:11;;;;;;;;;;;21.60;50.20;;;;;;21083248;28;19950;-58
2023/05/25 08:51:14;;;;;;;;;;;21.80;49.00;;;;;;21081371;28;19924;-57
2023/05/25 09:01:17;;;;;;;;;;;22.10;47.90;;;;;;21081388;28;20381;-57
2023/05/25 09:11:18;;;;;;;;;;;22.00;47.60;;;;;;21080184;28;19924;-58
2023/05/25 09:21:19;;;;;;;;;;;22.20;47.00;;;;;;21078479;28;19924;-58
2023/05/25 09:31:21;;;;;;;;;;;22.30;46.50;;;;;;21079056;28;20405;-59
2023/05/25 09:41:26;;;;;;;;;;;22.40;50.50;;;;;;21079466;28;20286;-58
2023/05/25 09:51:27;;;;;;;;;;;22.70;49.00;;;;;;21077647;28;20270;-59
2023/05/25 10:01:27;;;;;;;;;;;23.00;46.40;;;;;;21078982;28;19924;-58
2023/05/25 10:11:28;;;;;;;;;;;23.00;45.40;;;;;;21078221;28;19924;-57
2023/05/25 10:21:29;;;;;;;;;;;22.90;45.20;;;;;;21080738;28;19927;-57
2023/05/25 10:31:32;;;;;;;;;;;23.10;44.70;;;;;;21093390;28;20416;-62
2023/05/25 10:41:33;;;;;;;;;;;23.20;45.70;;;;;;21091974;28;20292;-59
2023/05/25 10:51:40;;;;;;;;;;;23.10;45.60;;;;;;21090593;28;19966;-59
2023/05/25 11:01:50;;;;;;;;;;;23.30;44.50;;;;;;21089282;28;19932;-59
2023/05/25 11:11:51;;;;;;;;;;;23.30;44.60;;;;;;21090912;28;20353;-60
2023/05/25 11:21:54;;;;;;;;;;;23.50;44.20;;;;;;21170904;28;19990;-57
2023/05/25 11:31:55;;;;;;;;;;;23.50;44.30;;;;;;21167977;28;20002;-57
2023/05/25 11:42:00;;;;;;;;;;;23.70;43.50;;;;;;21170643;28;19971;-59
2023/05/25 11:52:03;;;;;;;;;;;24.10;43.20;;;;;;21162126;28;19946;-59
2023/05/25 12:02:04;;;;;;;;;;;24.50;41.90;;;;;;21169953;28;19931;-58
2023/05/25 12:12:05;;;;;;;;;;;24.40;41.50;;;;;;21169088;28;20012;-58
2023/05/25 12:22:06;;;;;;;;;;;24.50;41.50;;;;;;21167283;28;19923;-58
2023/05/25 12:32:06;;;;;;;;;;;24.60;41.60;;;;;;21167439;28;20352;-58
2023/05/25 12:42:12;;;;;;;;;;;24.50;40.80;;;;;;21166421;28;19924;-58
2023/05/25 12:52:31;;;;;;;;;;;24.70;40.60;;;;;;21163538;28;19924;-57
2023/05/25 13:02:31;;;;;;;;;;;24.70;40.40;;;;;;21165925;28;19924;-58
2023/05/25 13:12:33;;;;;;;;;;;24.70;40.50;;;;;;21164308;28;19930;-57
2023/05/25 13:22:34;;;;;;;;;;;24.70;42.10;;;;;;21163114;28;19990;-57
2023/05/25 13:32:35;;;;;;;;;;;23.60;46.70;;;;;;21162837;28;19924;-57
2023/05/25 13:42:35;;;;;;;;;;;21.60;55.10;;;;;;21162214;28;20334;-58
2023/05/25 13:52:36;;;;;;;;;;;21.40;59.40;;;;;;21161986;28;20453;-57
2023/05/25 14:02:37;;;;;;;;;;;21.20;59.90;;;;;;21177644;28;20010;-58
2023/05/25 14:12:38;;;;;;;;;;;21.20;62.90;;;;;;21179583;28;20429;-59
2023/05/25 14:22:38;;;;;;;;;;;21.60;62.90;;;;;;21177635;28;19924;-59
2023/05/25 14:32:39;;;;;;;;;;;22.30;61.90;;;;;;21178840;28;20473;-57
2023/05/25 14:42:40;;;;;;;;;;;23.00;59.60;;;;;;21177358;28;19927;-58
2023/05/25 14:52:40;;;;;;;;;;;23.40;53.10;;;;;;21176968;28;19972;-57
2023/05/25 15:02:41;;;;;;;;;;;23.70;51.90;;;;;;21174268;28;20421;-58
2023/05/25 15:12:41;;;;;;;;;;;23.90;49.70;;;;;;21172260;28;19949;-57
2023/05/25 15:22:42;;;;;;;;;;;23.90;48.40;;;;;;21172344;28;19928;-57
2023/05/25 15:32:43;;;;;;;;;;;23.80;47.90;;;;;;21172740;28;20395;-57
2023/05/25 15:42:43;;;;;;;;;;;23.80;47.40;;;;;;21170134;28;20022;-56
2023/05/25 15:52:45;;;;;;;;;;;23.70;48.50;;;;;;21169553;28;19930;-58
2023/05/25 16:02:46;;;;;;;;;;;23.90;45.90;;;;;;21170351;28;20354;-56
2023/05/25 16:12:46;;;;;;;;;;;23.70;46.80;;;;;;21168858;28;19974;-57
2023/05/25 16:22:47;;;;;;;;;;;23.10;47.70;;;;;;21167964;28;20027;-59
2023/05/25 16:32:47;;;;;;;;;;;22.90;48.40;;;;;;21166466;28;20399;-59
2023/05/25 16:42:48;;;;;;;;;;;23.00;46.80;;;;;;21165690;28;20262;-60
2023/05/25 16:52:49;;;;;;;;;;;23.00;46.20;;;;;;21166956;28;19924;-59
2023/05/25 17:02:49;;;;;;;;;;;23.10;46.50;;;;;;21166264;28;20296;-58
2023/05/25 17:12:50;;;;;;;;;;;23.20;44.90;;;;;;21038339;28;19975;-54
2023/05/25 17:22:51;;;;;;;;;;;23.20;44.80;;;;;;21106839;28;20011;-57
2023/05/25 17:32:52;;;;;;;;;;;23.10;45.80;;;;;;21080231;28;19975;-54
2023/05/25 17:42:53;;;;;;;;;;;22.90;47.50;;;;;;21078616;28;19924;-60
2023/05/25 17:52:53;;;;;;;;;;;22.90;46.90;;;;;;21074817;28;20373;-55
2023/05/25 18:02:54;;;;;;;;;;;22.80;49.20;;;;;;21108773;28;20007;-56
2023/05/25 18:12:55;;;;;;;;;;;22.70;51.50;;;;;;21066509;28;20018;-63
2023/05/25 18:22:55;;;;;;;;;;;22.70;51.70;;;;;;21110981;28;20019;-57
2023/05/25 18:32:56;;;;;;;;;;;22.60;50.90;;;;;;21076417;28;20381;-57
2023/05/25 18:42:57;;;;;;;;;;;22.30;51.00;;;;;;21078452;28;19931;-56
2023/05/25 18:52:58;;;;;;;;;;;22.10;51.20;;;;;;21091170;28;19924;-57
2023/05/25 19:02:58;;;;;;;;;;;22.00;50.80;;;;;;21090515;28;19931;-57
2023/05/25 19:12:59;;;;;;;;;;;21.90;52.00;;;;;;21089776;28;19949;-57
2023/05/25 19:23:00;;;;;;;;;;;21.60;52.20;;;;;;21087839;28;20404;-60
2023/05/25 19:33:01;;;;;;;;;;;21.40;53.70;;;;;;21088056;28;20397;-56
2023/05/25 19:43:02;;;;;;;;;;;21.10;54.20;;;;;;21086234;28;19971;-57
2023/05/25 19:53:02;;;;;;;;;;;20.80;53.80;;;;;;21085054;28;19928;-57
2023/05/25 20:03:03;;;;;;;;;;;20.50;54.60;;;;;;21082781;28;19924;-57
2023/05/25 20:13:07;;;;;;;;;;;20.30;55.20;;;;;;21082795;28;19931;-56
2023/05/25 20:23:08;;;;;;;;;;;20.10;56.30;;;;;;21082774;28;20297;-57
2023/05/25 20:33:09;;;;;;;;;;;19.80;57.20;;;;;;21082600;28;20407;-57
2023/05/25 20:43:09;;;;;;;;;;;19.60;56.20;;;;;;21080875;28;20270;-57
2023/05/25 20:53:10;;;;;;;;;;;19.30;57.20;;;;;;21080679;28;19924;-57
2023/05/25 21:03:11;;;;;;;;;;;19.20;58.20;;;;;;21079068;28;19950;-56
2023/05/25 21:13:11;;;;;;;;;;;19.00;58.80;;;;;;21078985;28;19928;-59
2023/05/25 21:23:12;;;;;;;;;;;19.00;58.90;;;;;;21078796;28;19924;-56
2023/05/25 21:33:12;;;;;;;;;;;19.00;59.10;;;;;;21078611;28;19975;-57
2023/05/25 21:43:13;;;;;;;;;;;18.80;59.30;;;;;;21078510;28;19924;-58
2023/05/25 21:53:14;;;;;;;;;;;18.70;59.80;;;;;;21077996;28;20011;-56
2023/05/25 22:03:15;;;;;;;;;;;18.60;59.90;;;;;;21077892;28;19924;-57
2023/05/25 22:13:15;;;;;;;;;;;18.50;59.90;;;;;;21077605;28;19949;-55
2023/05/25 22:23:16;;;;;;;;;;;18.40;59.90;;;;;;21090010;28;20078;-55
2023/05/25 22:33:16;;;;;;;;;;;18.30;60.50;;;;;;21092957;28;20018;-56
2023/05/25 22:43:17;;;;;;;;;;;18.30;60.60;;;;;;21093060;28;20392;-56
2023/05/25 22:53:18;;;;;;;;;;;18.30;60.50;;;;;;21092962;28;19924;-57
2023/05/25 23:03:18;;;;;;;;;;;18.30;60.70;;;;;;21091953;28;20028;-55
2023/05/25 23:13:22;;;;;;;;;;;18.10;61.20;;;;;;21090966;28;19931;-56
2023/05/25 23:23:23;;;;;;;;;;;18.00;61.90;;;;;;21088501;28;19924;-57
2023/05/25 23:33:23;;;;;;;;;;;18.00;64.10;;;;;;21087597;28;19924;-57
2023/05/25 23:43:25;;;;;;;;;;;17.80;66.80;;;;;;21087476;28;19924;-57
2023/05/25 23:53:25;;;;;;;;;;;17.70;66.90;;;;;;21088004;28;20025;-56
